Data for 08/31/2005

Time Sea-Level Adjusted Pressure Absolute Pressure Temperature Relative Humidity Dew Point   
(mb) (inHg) (mb) (inHg) (C) (F) (%) (C) (F)
00:05 1023 30.21 853 25.19 8.9 48 54 0.2 32.4
00:10 1023 30.21 853 25.19 8.8 47.9 54 0.1 32.2
00:15 1023 30.21 853 25.19 8.8 47.9 55 0.2 32.3
00:20 1023 30.21 853 25.19 8.7 47.7 55 0.3 32.5
00:25 1023 30.21 853 25.19 8.7 47.6 54 -0.2 31.7
00:30 1023 30.21 853 25.19 8.7 47.7 54 -0.2 31.7
00:35 1023 30.21 853 25.19 8.7 47.7 53 -0.3 31.5
00:40 1023 30.21 853 25.19 8.8 47.9 52 -0.5 31.1
00:45 1023 30.21 852 25.16 8.9 48.1 52 -0.3 31.4
00:50 1023 30.21 852 25.16 8.8 47.8 53 -0.3 31.5
00:55 1023 30.21 852 25.16 8.6 47.4 54 -0.2 31.6
01:00 1023 30.21 852 25.16 8.2 46.8 55 -0.3 31.5
01:05 1023 30.21 852 25.16 8.2 46.7 57 0.3 32.5
01:10 1023 30.21 853 25.19 7.6 45.7 62 0.8 33.5
01:15 1023 30.21 853 25.19 7.1 44.8 63 0.5 32.8
01:20 1023 30.21 853 25.19 6.8 44.3 64 0.4 32.8
01:25 1023 30.21 853 25.19 6.8 44.3 60 -0.3 31.4
01:30 1023 30.21 853 25.19 7.3 45.2 59 -0.2 31.6
01:35 1023 30.21 852 25.16 7.6 45.6 57 -0.3 31.4
01:40 1023 30.21 852 25.16 7.6 45.6 58 -0.2 31.6
01:45 1023 30.21 852 25.16 7.5 45.5 58 -0.1 31.7
01:50 1023 30.21 853 25.19 7.5 45.5 58 -0.1 31.8
01:55 1023 30.21 853 25.19 7.4 45.2 58 -0.2 31.6
02:00 1023 30.21 853 25.19 7.3 45.2 59 -0 32
02:05 1023 30.21 853 25.19 7.3 45.1 59 -0.2 31.7
02:10 1023 30.21 853 25.19 7.1 44.8 61 0.1 32.1
02:15 1023 30.21 853 25.19 7 44.5 60 -0.3 31.5
02:20 1023 30.21 853 25.19 6.9 44.4 60 -0.2 31.6
02:25 1023 30.21 852 25.16 7 44.5 61 -0.1 31.8
02:30 1023 30.21 852 25.16 7.1 44.8 57 -0.8 30.6
02:35 1023 30.21 852 25.16 7.4 45.4 57 -0.4 31.3
02:40 1023 30.21 852 25.16 7.3 45.1 61 0.2 32.4
02:45 1023 30.21 853 25.19 6.3 43.4 68 0.8 33.5
02:50 1023 30.21 853 25.19 5.5 41.9 69 0.4 32.7
02:55 1023 30.21 853 25.19 5.2 41.4 71 0.5 32.9
03:00 1023 30.21 852 25.16 5.1 41.2 69 -0 31.9
03:05 1023 30.21 852 25.16 5.5 41.9 66 -0.4 31.3
03:10 1023 30.21 852 25.16 6.1 43 65 -0.1 31.9
03:15 1023 30.21 852 25.16 6 42.8 67 0.4 32.7
03:20 1023 30.21 852 25.16 5.6 42.1 69 0.4 32.7
03:25 1023 30.21 853 25.19 5.4 41.6 69 0.2 32.4
03:30 1023 30.21 853 25.19 5.3 41.6 70 0.3 32.6
03:35 1023 30.21 853 25.19 5 40.9 71 0.2 32.3
03:40 1023 30.21 853 25.19 5.1 41.2 69 -0.1 31.7
03:45 1023 30.21 853 25.19 5.6 42 67 0 32
03:50 1023 30.21 853 25.19 5.8 42.5 67 0.2 32.3
03:55 1023 30.21 853 25.19 5.8 42.4 68 0.3 32.5
04:00 1023 30.21 853 25.19 5.6 42 69 0.3 32.5
04:05 1023 30.21 853 25.19 5.3 41.5 70 0.3 32.6
04:10 1023 30.21 853 25.19 5 41 72 0.4 32.7
04:15 1023 30.21 853 25.19 5 40.9 72 0.3 32.5
04:20 1023 30.21 853 25.19 4.9 40.8 73 0.4 32.8
04:25 1024 30.24 853 25.19 4.7 40.5 71 0 32
04:30 1024 30.24 853 25.19 5 40.9 71 0.1 32.3
04:35 1024 30.24 853 25.19 5.2 41.3 70 0.1 32.2
04:40 1023 30.21 853 25.19 5.3 41.6 70 0.2 32.4
04:45 1024 30.24 853 25.19 5.4 41.6 68 -0.1 31.9
04:50 1024 30.24 853 25.19 5.5 41.9 68 0.1 32.1
04:55 1024 30.24 853 25.19 5.7 42.2 68 0.2 32.3
05:00 1023 30.21 853 25.19 5.6 42.2 68 0.3 32.5
05:05 1023 30.21 853 25.19 5.6 42 68 0.2 32.4
05:10 1023 30.21 853 25.19 5.6 42.1 68 0.2 32.4
05:15 1024 30.24 853 25.19 5.6 42 69 0.3 32.6
05:20 1024 30.24 853 25.19 5.3 41.6 71 0.6 33.1
05:25 1024 30.24 853 25.19 4.7 40.4 74 0.4 32.7
05:30 1024 30.24 853 25.19 4.6 40.4 73 0.2 32.3
05:35 1024 30.24 853 25.19 5.3 41.5 68 -0.1 31.8
05:40 1024 30.24 853 25.19 5.5 41.9 70 0.4 32.7
05:45 1024 30.24 853 25.19 5 40.9 73 0.5 32.9
05:50 1024 30.24 853 25.19 4.6 40.3 73 0.1 32.2
05:55 1024 30.24 853 25.19 4.6 40.2 73 0.2 32.3
06:00 1024 30.24 853 25.19 4.7 40.5 71 -0.1 31.9
06:05 1024 30.24 853 25.19 5.1 41.2 67 -0.5 31.1
06:10 1024 30.24 853 25.19 5.5 41.9 66 -0.4 31.3
06:15 1024 30.24 853 25.19 5.4 41.8 66 -0.4 31.2
06:20 1024 30.24 853 25.19 5.3 41.6 66 -0.6 31
06:25 1024 30.24 853 25.19 5.4 41.6 66 -0.4 31.3
06:30 1024 30.24 853 25.19 5.6 42 64 -0.6 30.9
06:35 1024 30.24 853 25.19 5.9 42.6 63 -0.7 30.8
06:40 1024 30.24 853 25.19 5.8 42.5 64 -0.5 31
06:45 1024 30.24 853 25.19 5.6 42.1 65 -0.5 31.1
06:50 1024 30.24 853 25.19 5.3 41.6 67 -0.4 31.3
06:55 1024 30.24 853 25.19 5.1 41.2 67 -0.4 31.2
07:00 1024 30.24 853 25.19 5.3 41.5 66 -0.6 30.9
07:05 1024 30.24 853 25.19 5.6 42.1 64 -0.5 31
07:10 1024 30.24 853 25.19 5.7 42.2 65 -0.5 31.1
07:15 1024 30.24 853 25.19 5.7 42.3 64 -0.4 31.2
07:20 1024 30.24 853 25.19 5.9 42.7 63 -0.5 31.1
07:25 1024 30.24 853 25.19 6.2 43.1 62 -0.5 31
07:30 1024 30.24 853 25.19 6.5 43.7 61 -0.4 31.4
07:35 1024 30.24 853 25.19 6.8 44.3 61 -0.2 31.6
07:40 1024 30.24 853 25.19 6.9 44.5 60 -0.2 31.6
07:45 1024 30.24 853 25.19 7.3 45.1 58 -0.4 31.4
07:50 1024 30.24 853 25.19 7.3 45.2 59 -0.2 31.6
07:55 1024 30.24 853 25.19 7.5 45.5 59 -0.1 31.9
08:00 1024 30.24 853 25.19 7.8 46 58 0.1 32.1
08:05 1024 30.24 853 25.19 8 46.3 57 -0 32
08:10 1024 30.24 853 25.19 7.9 46.3 58 0.3 32.6
08:15 1024 30.24 853 25.19 8.8 47.8 55 0.1 32.3
08:20 1024 30.24 853 25.19 9 48.2 55 0.5 32.9
08:25 1024 30.24 853 25.19 9.2 48.5 54 0.4 32.8
08:30 1024 30.24 854 25.22 9.1 48.3 52 -0.1 31.8
08:35 1024 30.24 854 25.22 9.5 49.2 54 0.8 33.5
08:40 1024 30.24 854 25.22 9.3 48.8 57 1.3 34.3
08:45 1024 30.24 854 25.22 9.2 48.6 56 0.9 33.7
08:50 1024 30.24 853 25.19 9.6 49.3 54 0.8 33.5
08:55 1024 30.24 854 25.22 10.1 50.1 51 0.3 32.6
09:00 1024 30.24 854 25.22 10.4 50.7 52 0.9 33.6
09:05 1024 30.24 854 25.22 10.8 51.5 47 0.1 32.2
09:10 1024 30.24 854 25.22 10.8 51.5 47 -0.1 31.8
09:15 1024 30.24 854 25.22 11.1 51.9 46 -0.2 31.7
09:20 1024 30.24 854 25.22 12 53.5 44 0.2 32.3
09:25 1024 30.24 854 25.22 12.3 54.1 44 0.5 32.8
09:30 1024 30.24 853 25.19 12.1 53.7 46 0.9 33.6
09:35 1024 30.24 853 25.19 12.1 53.8 47 1.2 34.1
09:40 1024 30.24 853 25.19 12.5 54.5 45 1 33.9
09:45 1024 30.24 853 25.19 13 55.3 44 1 33.8
09:50 1024 30.24 853 25.19 13.1 55.6 45 1.5 34.8
09:55 1024 30.24 853 25.19 13.3 56 44 1.4 34.5
10:00 1024 30.24 853 25.19 13.9 57.1 43 1.8 35.2
10:05 1024 30.24 853 25.19 14.2 57.5 43 2 35.6
10:10 1024 30.24 853 25.19 14.2 57.5 42 1.7 35.1
10:15 1024 30.24 853 25.19 14.3 57.8 42 1.6 34.8
10:20 1024 30.24 853 25.19 14.4 57.9 42 1.8 35.3
10:25 1024 30.24 853 25.19 14.6 58.2 40 1.2 34.1
10:30 1024 30.24 853 25.19 14.7 58.5 41 1.6 34.9
10:35 1024 30.24 853 25.19 14.9 58.7 38 0.9 33.6
10:40 1024 30.24 853 25.19 15.3 59.5 40 2 35.5
10:45 1024 30.24 853 25.19 14.7 58.5 39 1 33.8
10:50 1024 30.24 853 25.19 14.7 58.5 38 0.5 33
10:55 1024 30.24 853 25.19 15.6 60.2 36 0.7 33.2
11:00 1024 30.24 853 25.19 15.8 60.4 34 0.2 32.3
11:05 1024 30.24 853 25.19 15.8 60.4 36 0.7 33.3
11:10 1024 30.24 853 25.19 16 60.7 34 0.1 32.3
11:15 1024 30.24 853 25.19 16.2 61.1 35 0.9 33.7
11:20 1024 30.24 853 25.19 16.8 62.2 33 0.7 33.2
11:25 1024 30.24 853 25.19 16.6 61.9 34 0.9 33.6
11:30 1024 30.24 853 25.19 16.7 62.1 33 0.6 33.1
11:35 1024 30.24 853 25.19 16.9 62.5 34 1.3 34.3
11:40 1024 30.24 853 25.19 15.9 60.6 35 0.7 33.3
11:45 1024 30.24 853 25.19 15.6 60 34 -0.1 31.7
11:50 1024 30.24 853 25.19 15.2 59.4 36 0.3 32.5
11:55 1024 30.24 853 25.19 15.6 60 36 0.8 33.4
12:00 1024 30.24 853 25.19 16 60.8 34 0 32.1
12:05 1024 30.24 853 25.19 16.8 62.3 33 0.7 33.2
12:10 1023 30.21 853 25.19 17.5 63.4 32 0.9 33.7
12:15 1023 30.21 853 25.19 17.5 63.4 33 1.1 34
12:20 1023 30.21 853 25.19 16.9 62.5 32 0.3 32.6
12:25 1023 30.21 853 25.19 17.2 62.9 32 0.5 32.8
12:30 1023 30.21 852 25.16 17.2 62.9 34 1.1 34
12:35 1023 30.21 852 25.16 16.1 60.9 34 0.4 32.7
12:40 1023 30.21 852 25.16 16.3 61.4 34 0.5 32.9
12:45 1023 30.21 852 25.16 17.4 63.3 31 0.4 32.7
12:50 1023 30.21 852 25.16 17.7 63.8 31 0.6 33.1
12:55 1023 30.21 852 25.16 17.3 63.1 32 0.7 33.3
13:00 1023 30.21 852 25.16 17.6 63.7 31 0.5 32.9
13:05 1023 30.21 852 25.16 17.7 63.9 31 0.7 33.2
13:10 1023 30.21 852 25.16 18.1 64.6 31 0.8 33.4
13:15 1023 30.21 852 25.16 18.1 64.5 32 1 33.9
13:20 1023 30.21 852 25.16 18.7 65.6 29 0.5 32.8
13:25 1023 30.21 852 25.16 18.8 65.9 30 1.2 34.2
13:30 1023 30.21 852 25.16 18.9 66.1 30 1.1 34
13:35 1023 30.21 852 25.16 19 66.3 30 1.2 34.1
13:40 1023 30.21 852 25.16 18.8 65.9 31 1.3 34.3
13:45 1023 30.21 852 25.16 19.3 66.7 30 1.3 34.4
13:50 1023 30.21 852 25.16 19.3 66.8 31 1.7 35.1
13:55 1022 30.18 852 25.16 19.4 66.8 30 1.7 35
14:00 1023 30.21 852 25.16 19.4 66.9 30 1.4 34.5
14:05 1022 30.18 852 25.16 19.3 66.8 31 2 35.7
14:10 1022 30.18 852 25.16 19 66.2 31 1.5 34.7
14:15 1022 30.18 852 25.16 18.1 64.6 32 1.5 34.6
14:20 1022 30.18 852 25.16 17.7 63.9 32 1.1 34.1
14:25 1022 30.18 852 25.16 18.6 65.5 30 1.1 33.9
14:30 1022 30.18 852 25.16 19.7 67.5 28 1.1 34
14:35 1022 30.18 851 25.13 20 68 31 2.4 36.2
14:40 1022 30.18 851 25.13 18.6 65.5 32 1.7 35.1
14:45 1022 30.18 851 25.13 18.5 65.3 31 1.1 33.9
14:50 1022 30.18 851 25.13 18.2 64.7 32 1.3 34.4
14:55 1022 30.18 851 25.13 18.4 65.2 31 1 33.7
15:00 1022 30.18 851 25.13 18.8 65.8 30 1.2 34.1
15:05 1022 30.18 851 25.13 19.8 67.7 29 1.6 34.9
15:10 1022 30.18 851 25.13 19.7 67.5 28 1 33.8
15:15 1022 30.18 851 25.13 20.2 68.4 28 1.4 34.6
15:20 1022 30.18 851 25.13 20.3 68.5 27 1.1 34
15:25 1022 30.18 851 25.13 20.5 69 27 1 33.8
15:30 1022 30.18 851 25.13 20.8 69.4 27 1.1 33.9
15:35 1022 30.18 851 25.13 20.3 68.6 27 0.9 33.7
15:40 1022 30.18 851 25.13 20.7 69.3 26 0.9 33.6
15:45 1022 30.18 851 25.13 20.1 68.1 28 1.4 34.5
15:50 1022 30.18 851 25.13 20.4 68.6 27 1.1 33.9
15:55 1022 30.18 851 25.13 20.6 69.1 26 0.4 32.6
16:00 1021 30.15 851 25.13 19.7 67.5 27 0.6 33
16:05 1021 30.15 851 25.13 20.4 68.6 26 0.6 33.2
16:10 1021 30.15 851 25.13 19.9 67.8 27 0.4 32.8
16:15 1021 30.15 851 25.13 20.7 69.3 26 0.6 33.1
16:20 1021 30.15 851 25.13 20.7 69.3 26 0.7 33.2
16:25 1021 30.15 851 25.13 21.4 70.6 26 1.3 34.4
16:30 1021 30.15 851 25.13 21.2 70.2 27 1.9 35.4
16:35 1021 30.15 851 25.13 20.6 69.1 26 0.7 33.3
16:40 1021 30.15 850 25.1 20.8 69.5 27 1.3 34.3
16:45 1021 30.15 850 25.1 20.2 68.4 27 0.8 33.4
16:50 1021 30.15 850 25.1 20.4 68.7 27 0.9 33.5
16:55 1021 30.15 850 25.1 20.8 69.5 27 1.2 34.1
17:00 1021 30.15 850 25.1 20.9 69.6 26 1 33.7
17:05 1021 30.15 850 25.1 20.1 68.2 28 1.1 34
17:10 1021 30.15 850 25.1 20.2 68.3 27 0.8 33.5
17:15 1021 30.15 850 25.1 21.1 69.9 26 0.9 33.7
17:20 1021 30.15 850 25.1 20.8 69.4 27 1.2 34.1
17:25 1021 30.15 850 25.1 20.3 68.6 27 1.1 33.9
17:30 1021 30.15 850 25.1 20.7 69.2 27 0.9 33.7
17:35 1021 30.15 850 25.1 21.1 70 26 0.9 33.6
17:40 1021 30.15 850 25.1 21.2 70.2 27 1.6 34.9
17:45 1021 30.15 850 25.1 21.2 70.1 26 1 33.8
17:50 1021 30.15 850 25.1 21.2 70.1 25 0.8 33.4
17:55 1021 30.15 850 25.1 21.2 70.1 26 1.3 34.4
18:00 1021 30.15 850 25.1 20.2 68.4 27 0.9 33.6
18:05 1021 30.15 850 25.1 19.8 67.6 27 0.6 33
18:10 1021 30.15 850 25.1 19.9 67.8 28 0.9 33.6
18:15 1021 30.15 850 25.1 20.3 68.5 26 0.4 32.8
18:20 1021 30.15 850 25.1 20 68.1 26 0.3 32.6
18:25 1021 30.15 850 25.1 19.7 67.5 27 0.3 32.6
18:30 1021 30.15 850 25.1 19.3 66.8 27 0.2 32.3
18:35 1021 30.15 850 25.1 19.2 66.5 28 0.5 32.9
18:40 1021 30.15 850 25.1 19.4 66.8 28 0.6 33
18:45 1021 30.15 850 25.1 19.6 67.3 28 0.6 33.1
18:50 1021 30.15 850 25.1 19.3 66.7 28 0.7 33.2
18:55 1021 30.15 850 25.1 19 66.3 28 0.4 32.8
19:00 1021 30.15 850 25.1 19.3 66.7 28 0.5 33
19:05 1021 30.15 850 25.1 19.4 66.8 28 0.6 33
19:10 1021 30.15 850 25.1 19.2 66.6 28 0.5 32.9
19:15 1021 30.15 850 25.1 19.3 66.7 29 0.8 33.5
19:20 1021 30.15 850 25.1 19.2 66.5 29 1 33.8
19:25 1021 30.15 850 25.1 19.1 66.3 28 0.2 32.3
19:30 1021 30.15 850 25.1 18.9 66.1 28 0.4 32.7
19:35 1021 30.15 850 25.1 18.9 66 29 0.5 32.9
19:40 1021 30.15 850 25.1 18.9 65.9 29 0.7 33.2
19:45 1021 30.15 850 25.1 18.9 65.9 29 0.4 32.7
19:50 1021 30.15 850 25.1 18.8 65.8 31 1.3 34.4
19:55 1021 30.15 850 25.1 18.7 65.6 32 1.7 35
20:00 1021 30.15 850 25.1 18.6 65.4 32 1.8 35.2
20:05 1021 30.15 850 25.1 18 64.4 36 2.7 36.9
20:10 1021 30.15 850 25.1 17.6 63.6 43 4.8 40.7
20:15 1021 30.15 850 25.1 17.2 63 42 4.4 39.9
20:20 1021 30.15 850 25.1 16.2 61.2 48 5.4 41.8
20:25 1021 30.15 850 25.1 15.4 59.8 51 5.5 42
20:30 1021 30.15 850 25.1 14.9 58.9 49 4.5 40.1
20:35 1021 30.15 850 25.1 14.6 58.2 50 4.2 39.6
20:40 1021 30.15 850 25.1 14.5 58 50 4.3 39.7
20:45 1021 30.15 850 25.1 14.1 57.4 51 4.3 39.7
20:50 1021 30.15 850 25.1 13.8 56.8 52 4.1 39.3
20:55 1021 30.15 850 25.1 13.5 56.4 53 4.3 39.8
21:00 1021 30.15 850 25.1 13.1 55.6 55 4.4 39.9
21:05 1021 30.15 850 25.1 12.8 55 56 4.2 39.5
21:10 1021 30.15 850 25.1 12.6 54.7 56 4.1 39.3
21:15 1021 30.15 850 25.1 12.4 54.3 55 3.8 38.8
21:20 1021 30.15 850 25.1 12.2 53.9 56 3.7 38.6
21:25 1021 30.15 850 25.1 12 53.6 56 3.7 38.6
21:30 1021 30.15 850 25.1 12 53.6 55 3.4 38
21:35 1021 30.15 850 25.1 12 53.6 53 2.9 37.2
21:40 1021 30.15 850 25.1 12.3 54.2 52 2.8 37
21:45 1021 30.15 850 25.1 12.8 55 49 2.5 36.4
21:50 1021 30.15 850 25.1 12.8 55.1 50 2.7 36.9
21:55 1021 30.15 850 25.1 12.9 55.2 50 2.9 37.2
22:00 1021 30.15 850 25.1 12.4 54.3 53 3.2 37.8
22:05 1021 30.15 850 25.1 11.9 53.5 54 3.1 37.5
22:10 1021 30.15 850 25.1 11.8 53.3 54 3 37.4
22:15 1021 30.15 850 25.1 11.7 53 55 3 37.3
22:20 1021 30.15 850 25.1 11.7 53.1 54 2.8 37
22:25 1021 30.15 850 25.1 11.7 53.1 54 2.7 36.8
22:30 1021 30.15 850 25.1 11.8 53.2 53 2.7 36.8
22:35 1021 30.15 850 25.1 11.8 53.2 54 2.7 36.9
22:40 1021 30.15 850 25.1 11.7 53.1 54 2.7 36.8
22:45 1021 30.15 850 25.1 11.7 53 53 2.6 36.7
22:50 1021 30.15 850 25.1 11.8 53.3 53 2.7 36.9
22:55 1021 30.15 850 25.1 11.8 53.3 51 2.2 36
23:00 1021 30.15 850 25.1 12 53.6 50 2.1 35.7
23:05 1021 30.15 850 25.1 12 53.5 51 2.3 36.2
23:10 1021 30.15 850 25.1 11.8 53.2 51 2.1 35.8
23:15 1021 30.15 850 25.1 11.7 53.1 52 2.1 35.8
23:20 1021 30.15 850 25.1 11.7 53.1 51 2 35.6
23:25 1021 30.15 850 25.1 11.7 53.1 51 1.9 35.4
23:30 1021 30.15 850 25.1 11.7 53.1 51 1.9 35.5
23:35 1021 30.15 850 25.1 11.9 53.5 49 1.6 34.8
23:40 1021 30.15 850 25.1 12.1 53.7 49 1.9 35.4
23:45 1021 30.15 850 25.1 11.7 53.1 51 1.8 35.3
23:50 1021 30.15 850 25.1 11.4 52.5 52 1.9 35.5
23:55 1021 30.15 851 25.13 11.1 52 56 2.8 37
24:00 1021 30.15 851 25.13 11.1 52 52 1.7 35.1